TimeEDT,TemperatureF,Dew PointF,Humidity,Sea Level PressureIn,VisibilityMPH,Wind Direction,Wind SpeedMPH,Gust SpeedMPH,PrecipitationIn,Events,Conditions,WindDirDegrees,DateUTC
12:54 AM,45.0,39.9,82,29.98,-9999.0,SSE,10.4,-,N/A,,Unknown,150,2013-04-10 04:54:00
1:54 AM,46.0,39.9,79,29.99,-9999.0,South,6.9,-,N/A,,Unknown,170,2013-04-10 05:54:00
2:54 AM,45.0,39.9,82,30.00,-9999.0,Calm,Calm,-,N/A,,Unknown,0,2013-04-10 06:54:00
3:54 AM,44.1,42.1,93,30.01,-9999.0,NNE,4.6,-,0.04,,Unknown,30,2013-04-10 07:54:00
4:54 AM,44.1,42.1,93,29.94,-9999.0,ESE,8.1,-,0.02,,Unknown,120,2013-04-10 08:54:00
5:54 AM,43.0,41.0,93,29.93,-9999.0,ENE,9.2,-,N/A,,Unknown,70,2013-04-10 09:54:00
6:54 AM,44.1,42.1,93,29.94,-9999.0,NE,6.9,-,N/A,,Unknown,50,2013-04-10 10:54:00
7:54 AM,45.0,42.1,90,29.96,-9999.0,East,3.5,-,N/A,,Unknown,100,2013-04-10 11:54:00
8:00 AM,-9999,-9999,N/A,-9999,-9999.0,North,-9999.0,-,N/A,,Unknown,0,2013-04-10 12:00:00
8:54 AM,48.0,44.1,86,29.97,-9999.0,Calm,Calm,-,N/A,,Unknown,0,2013-04-10 12:54:00
9:54 AM,52.0,44.1,74,29.97,-9999.0,Variable,3.5,-,N/A,,Unknown,0,2013-04-10 13:54:00
10:54 AM,51.1,43.0,74,29.98,-9999.0,NE,10.4,-,N/A,,Unknown,40,2013-04-10 14:54:00
11:54 AM,53.1,42.1,66,30.00,-9999.0,NE,9.2,-,N/A,,Unknown,40,2013-04-10 15:54:00
12:54 PM,57.0,42.1,57,29.99,-9999.0,Variable,4.6,-,N/A,,Unknown,0,2013-04-10 16:54:00
1:54 PM,60.1,43.0,53,29.98,-9999.0,Calm,Calm,-,N/A,,Unknown,0,2013-04-10 17:54:00
2:54 PM,64.0,44.1,48,29.96,-9999.0,Variable,4.6,-,N/A,,Unknown,0,2013-04-10 18:54:00
3:54 PM,61.0,44.1,54,29.92,-9999.0,ENE,10.4,-,N/A,,Unknown,70,2013-04-10 19:54:00
4:54 PM,60.1,43.0,53,29.91,-9999.0,East,8.1,-,N/A,,Unknown,100,2013-04-10 20:54:00
5:54 PM,55.9,42.1,60,29.93,-9999.0,ENE,10.4,-,N/A,,Unknown,70,2013-04-10 21:54:00
6:54 PM,54.0,41.0,62,29.91,-9999.0,SE,10.4,-,N/A,,Unknown,130,2013-04-10 22:54:00
7:54 PM,51.1,42.1,71,29.89,-9999.0,SE,11.5,-,N/A,,Unknown,130,2013-04-10 23:54:00
8:54 PM,48.9,46.0,90,29.94,-9999.0,South,5.8,-,0.03,,Unknown,170,2013-04-11 00:54:00
9:54 PM,48.0,45.0,89,29.91,-9999.0,South,10.4,-,N/A,,Unknown,170,2013-04-11 01:54:00
10:54 PM,46.9,45.0,93,29.89,-9999.0,SE,5.8,-,N/A,,Unknown,140,2013-04-11 02:54:00
11:54 PM,46.9,44.1,90,29.92,-9999.0,SSW,8.1,-,N/A,,Unknown,200,2013-04-11 03:54:00